createdAt,value
2024-03-02T00:04:07.586Z,5.70
2024-03-02T00:24:07.713Z,5.69
2024-03-02T00:44:07.602Z,5.67
2024-03-02T01:04:07.557Z,5.67
2024-03-02T01:24:07.721Z,5.70
2024-03-02T01:44:07.567Z,5.67
2024-03-02T02:04:07.627Z,5.63
2024-03-02T02:24:07.584Z,5.50
2024-03-02T02:44:07.548Z,5.46
2024-03-02T03:04:07.600Z,5.44
2024-03-02T03:24:07.560Z,5.48
2024-03-02T03:44:07.514Z,5.32
2024-03-02T04:04:07.568Z,5.26
2024-03-02T04:24:07.535Z,5.41
2024-03-02T04:44:07.488Z,5.40
2024-03-02T05:04:07.556Z,5.40
2024-03-02T05:24:07.524Z,5.34
2024-03-02T05:44:07.473Z,5.34
2024-03-02T06:04:07.725Z,5.38
2024-03-02T06:24:07.559Z,5.38
2024-03-02T06:44:07.465Z,5.50
2024-03-02T07:04:07.435Z,5.76
2024-03-02T07:24:07.556Z,5.82
2024-03-02T07:44:07.471Z,5.81
2024-03-02T08:04:07.409Z,6.03
2024-03-02T08:24:07.478Z,6.43
2024-03-02T08:44:07.464Z,6.93
2024-03-02T09:04:07.428Z,7.34
2024-03-02T09:24:07.376Z,7.89
2024-03-02T09:44:07.448Z,8.81
2024-03-02T10:04:07.814Z,9.92
2024-03-02T10:24:07.764Z,10.46
2024-03-02T10:44:07.511Z,10.78
2024-03-02T11:04:07.477Z,10.64
2024-03-02T11:24:07.497Z,10.58
2024-03-02T11:44:07.563Z,10.72
2024-03-02T12:04:07.493Z,10.95
2024-03-02T12:24:07.678Z,11.46
2024-03-02T12:44:07.602Z,11.49
2024-03-02T13:04:07.621Z,11.52
2024-03-02T13:24:07.684Z,11.50
2024-03-02T13:44:07.528Z,11.60
2024-03-02T14:04:07.497Z,11.73
2024-03-02T14:24:07.147Z,11.79
2024-03-02T14:44:07.552Z,11.82
2024-03-02T15:04:07.260Z,11.79
2024-03-02T15:24:07.109Z,11.61
2024-03-02T15:44:07.211Z,11.31
2024-03-02T16:04:07.166Z,10.79
2024-03-02T16:24:07.137Z,10.26
2024-03-02T16:44:07.028Z,9.57
2024-03-02T17:04:07.135Z,8.83
2024-03-02T17:24:07.095Z,8.20
2024-03-02T17:44:07.036Z,7.56
2024-03-02T18:04:07.184Z,7.05
2024-03-02T18:24:06.971Z,6.73
2024-03-02T18:44:06.951Z,6.27
2024-03-02T19:04:06.937Z,5.96
2024-03-02T19:24:07.012Z,5.49
2024-03-02T19:44:07.150Z,5.22
2024-03-02T20:04:06.917Z,5.17
2024-03-02T20:24:07.000Z,4.95
2024-03-02T20:44:06.926Z,5.16
2024-03-02T21:04:06.966Z,4.89
2024-03-02T21:24:06.872Z,4.70
2024-03-02T21:44:07.063Z,4.60
2024-03-02T22:04:06.948Z,4.45
2024-03-02T22:24:06.850Z,4.20
2024-03-02T22:44:07.013Z,4.12
2024-03-02T23:04:06.868Z,3.87
2024-03-02T23:24:06.935Z,3.65
2024-03-02T23:44:06.876Z,3.46
